sensor_id;sensor_type;location;lat;lon;timestamp;temperature;humidity
72940;DHT22;61094;51.154;13.570;2023-08-21T00:02:30;23.60;99.90
72940;DHT22;61094;51.154;13.570;2023-08-21T00:07:32;23.50;99.90
72940;DHT22;61094;51.154;13.570;2023-08-21T00:12:35;23.50;99.90
72940;DHT22;61094;51.154;13.570;2023-08-21T00:17:37;23.40;99.90
72940;DHT22;61094;51.154;13.570;2023-08-21T00:22:38;23.50;99.90
72940;DHT22;61094;51.154;13.570;2023-08-21T00:27:42;23.40;99.90
72940;DHT22;61094;51.154;13.570;2023-08-21T00:32:43;23.20;99.90
72940;DHT22;61094;51.154;13.570;2023-08-21T00:37:45;23.20;99.90
72940;DHT22;61094;51.154;13.570;2023-08-21T00:42:48;23.20;99.90
72940;DHT22;61094;51.154;13.570;2023-08-21T00:47:50;23.20;99.90
72940;DHT22;61094;51.154;13.570;2023-08-21T00:52:52;23.10;99.90
72940;DHT22;61094;51.154;13.570;2023-08-21T00:57:55;23.20;99.90
72940;DHT22;61094;51.154;13.570;2023-08-21T01:02:57;23.20;99.90
72940;DHT22;61094;51.154;13.570;2023-08-21T01:08:01;23.10;99.90
72940;DHT22;61094;51.154;13.570;2023-08-21T01:13:10;23.20;99.90
72940;DHT22;61094;51.154;13.570;2023-08-21T01:18:13;23.20;99.90
72940;DHT22;61094;51.154;13.570;2023-08-21T01:23:29;22.90;99.90
72940;DHT22;61094;51.154;13.570;2023-08-21T01:28:32;22.70;99.90
72940;DHT22;61094;51.154;13.570;2023-08-21T01:33:39;22.60;99.90
72940;DHT22;61094;51.154;13.570;2023-08-21T01:38:43;22.70;99.90
72940;DHT22;61094;51.154;13.570;2023-08-21T01:43:46;22.70;99.90
72940;DHT22;61094;51.154;13.570;2023-08-21T01:48:48;22.60;99.90
72940;DHT22;61094;51.154;13.570;2023-08-21T01:53:51;22.60;99.90
72940;DHT22;61094;51.154;13.570;2023-08-21T01:58:53;22.50;99.90
72940;DHT22;61094;51.154;13.570;2023-08-21T02:03:54;22.50;99.90
72940;DHT22;61094;51.154;13.570;2023-08-21T02:08:57;22.50;99.90
72940;DHT22;61094;51.154;13.570;2023-08-21T02:13:59;22.20;99.90
72940;DHT22;61094;51.154;13.570;2023-08-21T02:19:01;22.30;99.90
72940;DHT22;61094;51.154;13.570;2023-08-21T02:24:04;22.30;99.90
72940;DHT22;61094;51.154;13.570;2023-08-21T02:29:06;22.30;99.90
72940;DHT22;61094;51.154;13.570;2023-08-21T02:34:08;22.30;99.90
72940;DHT22;61094;51.154;13.570;2023-08-21T02:39:11;22.20;99.90
72940;DHT22;61094;51.154;13.570;2023-08-21T02:44:13;22.20;99.90
72940;DHT22;61094;51.154;13.570;2023-08-21T02:49:15;22.30;99.90
72940;DHT22;61094;51.154;13.570;2023-08-21T02:54:18;22.30;99.90
72940;DHT22;61094;51.154;13.570;2023-08-21T02:59:20;22.40;99.90
72940;DHT22;61094;51.154;13.570;2023-08-21T03:04:21;22.30;99.90
72940;DHT22;61094;51.154;13.570;2023-08-21T03:09:26;22.20;99.90
72940;DHT22;61094;51.154;13.570;2023-08-21T03:14:28;22.20;99.90
72940;DHT22;61094;51.154;13.570;2023-08-21T03:19:30;22.20;99.90
72940;DHT22;61094;51.154;13.570;2023-08-21T03:24:33;22.10;99.90
72940;DHT22;61094;51.154;13.570;2023-08-21T03:29:35;22.00;99.90
72940;DHT22;61094;51.154;13.570;2023-08-21T03:34:36;21.90;99.90
72940;DHT22;61094;51.154;13.570;2023-08-21T03:39:41;21.90;99.90
72940;DHT22;61094;51.154;13.570;2023-08-21T03:44:45;21.80;99.90
72940;DHT22;61094;51.154;13.570;2023-08-21T03:49:49;21.80;99.90
72940;DHT22;61094;51.154;13.570;2023-08-21T03:54:53;21.70;99.90
72940;DHT22;61094;51.154;13.570;2023-08-21T03:59:55;21.60;99.90
72940;DHT22;61094;51.154;13.570;2023-08-21T04:04:58;21.40;99.90
72940;DHT22;61094;51.154;13.570;2023-08-21T04:10:02;21.40;99.90
72940;DHT22;61094;51.154;13.570;2023-08-21T04:15:04;21.30;99.90
72940;DHT22;61094;51.154;13.570;2023-08-21T04:20:07;21.20;99.90
72940;DHT22;61094;51.154;13.570;2023-08-21T04:25:11;21.10;99.90
72940;DHT22;61094;51.154;13.570;2023-08-21T04:30:13;21.10;99.90
72940;DHT22;61094;51.154;13.570;2023-08-21T04:35:15;21.10;99.90
72940;DHT22;61094;51.154;13.570;2023-08-21T04:40:19;21.10;99.90
72940;DHT22;61094;51.154;13.570;2023-08-21T04:45:22;21.00;99.90
72940;DHT22;61094;51.154;13.570;2023-08-21T04:50:24;21.00;99.90
72940;DHT22;61094;51.154;13.570;2023-08-21T04:55:27;21.00;99.90
72940;DHT22;61094;51.154;13.570;2023-08-21T05:00:30;21.10;99.90
72940;DHT22;61094;51.154;13.570;2023-08-21T05:05:32;21.10;99.90
72940;DHT22;61094;51.154;13.570;2023-08-21T05:10:35;21.10;99.90
72940;DHT22;61094;51.154;13.570;2023-08-21T05:15:37;21.20;99.90
72940;DHT22;61094;51.154;13.570;2023-08-21T05:20:39;21.30;99.90
72940;DHT22;61094;51.154;13.570;2023-08-21T05:25:43;21.40;99.90
72940;DHT22;61094;51.154;13.570;2023-08-21T05:30:46;21.50;99.90
72940;DHT22;61094;51.154;13.570;2023-08-21T05:35:49;21.60;99.90
72940;DHT22;61094;51.154;13.570;2023-08-21T05:40:52;21.60;99.90
72940;DHT22;61094;51.154;13.570;2023-08-21T05:45:54;21.70;99.90
72940;DHT22;61094;51.154;13.570;2023-08-21T05:50:56;21.80;99.90
72940;DHT22;61094;51.154;13.570;2023-08-21T05:56:01;21.90;99.90
72940;DHT22;61094;51.154;13.570;2023-08-21T06:01:02;22.00;99.90
72940;DHT22;61094;51.154;13.570;2023-08-21T06:06:07;22.10;99.90
72940;DHT22;61094;51.154;13.570;2023-08-21T06:11:10;22.20;99.90
72940;DHT22;61094;51.154;13.570;2023-08-21T06:16:12;22.40;99.90
72940;DHT22;61094;51.154;13.570;2023-08-21T06:21:15;22.50;99.90
72940;DHT22;61094;51.154;13.570;2023-08-21T06:26:19;22.50;99.90
72940;DHT22;61094;51.154;13.570;2023-08-21T06:31:21;22.60;99.90
72940;DHT22;61094;51.154;13.570;2023-08-21T06:36:23;22.70;99.90
72940;DHT22;61094;51.154;13.570;2023-08-21T06:41:26;22.90;99.90
72940;DHT22;61094;51.154;13.570;2023-08-21T06:46:28;23.00;99.90
72940;DHT22;61094;51.154;13.570;2023-08-21T06:51:31;23.10;99.90
72940;DHT22;61094;51.154;13.570;2023-08-21T06:56:34;23.30;99.90
72940;DHT22;61094;51.154;13.570;2023-08-21T07:01:36;23.40;99.90
72940;DHT22;61094;51.154;13.570;2023-08-21T07:06:38;23.70;99.90
72940;DHT22;61094;51.154;13.570;2023-08-21T07:11:41;23.90;99.90
72940;DHT22;61094;51.154;13.570;2023-08-21T07:16:43;24.10;99.90
72940;DHT22;61094;51.154;13.570;2023-08-21T07:21:44;24.20;99.90
72940;DHT22;61094;51.154;13.570;2023-08-21T07:26:47;24.50;99.90
72940;DHT22;61094;51.154;13.570;2023-08-21T07:31:49;24.90;94.70
72940;DHT22;61094;51.154;13.570;2023-08-21T07:36:51;25.00;94.80
72940;DHT22;61094;51.154;13.570;2023-08-21T07:41:54;25.40;95.70
72940;DHT22;61094;51.154;13.570;2023-08-21T07:46:56;25.80;95.50
72940;DHT22;61094;51.154;13.570;2023-08-21T07:51:57;26.30;89.90
72940;DHT22;61094;51.154;13.570;2023-08-21T07:57:02;26.60;85.10
72940;DHT22;61094;51.154;13.570;2023-08-21T08:02:04;27.10;89.00
72940;DHT22;61094;51.154;13.570;2023-08-21T08:07:07;27.40;78.70
72940;DHT22;61094;51.154;13.570;2023-08-21T08:12:11;27.80;75.30
72940;DHT22;61094;51.154;13.570;2023-08-21T08:17:13;28.10;69.80
72940;DHT22;61094;51.154;13.570;2023-08-21T08:22:16;28.00;68.50
72940;DHT22;61094;51.154;13.570;2023-08-21T08:27:19;28.10;61.50
72940;DHT22;61094;51.154;13.570;2023-08-21T08:32:23;28.30;58.70
72940;DHT22;61094;51.154;13.570;2023-08-21T08:37:26;28.50;61.40
72940;DHT22;61094;51.154;13.570;2023-08-21T08:42:30;28.60;60.70
72940;DHT22;61094;51.154;13.570;2023-08-21T08:47:32;28.80;56.50
72940;DHT22;61094;51.154;13.570;2023-08-21T08:52:38;29.10;53.60
72940;DHT22;61094;51.154;13.570;2023-08-21T08:57:41;29.40;56.50
72940;DHT22;61094;51.154;13.570;2023-08-21T09:02:43;29.70;49.50
72940;DHT22;61094;51.154;13.570;2023-08-21T09:07:46;29.80;50.40
72940;DHT22;61094;51.154;13.570;2023-08-21T09:13:13;30.20;49.70
72940;DHT22;61094;51.154;13.570;2023-08-21T09:18:16;30.40;47.70
72940;DHT22;61094;51.154;13.570;2023-08-21T09:23:18;30.60;47.30
72940;DHT22;61094;51.154;13.570;2023-08-21T09:28:22;31.00;45.50
72940;DHT22;61094;51.154;13.570;2023-08-21T09:33:24;31.10;43.10
72940;DHT22;61094;51.154;13.570;2023-08-21T09:38:26;31.20;40.20
72940;DHT22;61094;51.154;13.570;2023-08-21T09:43:29;31.00;40.70
72940;DHT22;61094;51.154;13.570;2023-08-21T09:48:31;31.00;39.40
72940;DHT22;61094;51.154;13.570;2023-08-21T09:53:34;31.00;42.20
72940;DHT22;61094;51.154;13.570;2023-08-21T09:58:38;31.40;37.90
72940;DHT22;61094;51.154;13.570;2023-08-21T10:03:40;31.20;39.60
72940;DHT22;61094;51.154;13.570;2023-08-21T10:08:46;31.40;37.90
72940;DHT22;61094;51.154;13.570;2023-08-21T10:13:52;31.30;37.50
72940;DHT22;61094;51.154;13.570;2023-08-21T10:18:54;31.60;39.20
72940;DHT22;61094;51.154;13.570;2023-08-21T10:23:55;31.60;39.70
72940;DHT22;61094;51.154;13.570;2023-08-21T10:29:01;31.90;38.60
72940;DHT22;61094;51.154;13.570;2023-08-21T10:34:04;31.80;36.60
72940;DHT22;61094;51.154;13.570;2023-08-21T10:39:13;31.90;36.60
72940;DHT22;61094;51.154;13.570;2023-08-21T10:44:16;32.10;35.70
72940;DHT22;61094;51.154;13.570;2023-08-21T10:49:22;32.40;36.70
72940;DHT22;61094;51.154;13.570;2023-08-21T10:54:24;32.70;36.90
72940;DHT22;61094;51.154;13.570;2023-08-21T10:59:27;33.00;34.70
72940;DHT22;61094;51.154;13.570;2023-08-21T11:04:29;33.30;34.70
72940;DHT22;61094;51.154;13.570;2023-08-21T11:09:30;33.60;33.70
72940;DHT22;61094;51.154;13.570;2023-08-21T11:14:34;33.90;33.30
72940;DHT22;61094;51.154;13.570;2023-08-21T11:19:37;34.30;33.10
72940;DHT22;61094;51.154;13.570;2023-08-21T11:24:41;34.30;32.10
72940;DHT22;61094;51.154;13.570;2023-08-21T11:29:45;34.50;30.30
72940;DHT22;61094;51.154;13.570;2023-08-21T11:34:49;34.60;31.60
72940;DHT22;61094;51.154;13.570;2023-08-21T11:39:54;34.50;30.10
72940;DHT22;61094;51.154;13.570;2023-08-21T11:44:58;34.40;32.20
72940;DHT22;61094;51.154;13.570;2023-08-21T11:50:05;34.60;30.30
72940;DHT22;61094;51.154;13.570;2023-08-21T11:55:09;34.70;31.30
72940;DHT22;61094;51.154;13.570;2023-08-21T12:00:13;34.70;31.00
72940;DHT22;61094;51.154;13.570;2023-08-21T12:05:20;34.80;31.20
72940;DHT22;61094;51.154;13.570;2023-08-21T12:10:23;34.80;30.50
72940;DHT22;61094;51.154;13.570;2023-08-21T12:15:26;34.90;30.50
72940;DHT22;61094;51.154;13.570;2023-08-21T12:20:28;34.90;30.20
72940;DHT22;61094;51.154;13.570;2023-08-21T12:25:32;35.00;30.00
72940;DHT22;61094;51.154;13.570;2023-08-21T12:30:35;35.00;30.00
72940;DHT22;61094;51.154;13.570;2023-08-21T12:35:37;34.90;29.70
72940;DHT22;61094;51.154;13.570;2023-08-21T12:40:39;34.80;30.30
72940;DHT22;61094;51.154;13.570;2023-08-21T12:45:42;34.70;29.90
72940;DHT22;61094;51.154;13.570;2023-08-21T12:50:44;34.60;30.00
72940;DHT22;61094;51.154;13.570;2023-08-21T12:55:46;34.50;29.90
72940;DHT22;61094;51.154;13.570;2023-08-21T13:00:49;34.30;30.60
72940;DHT22;61094;51.154;13.570;2023-08-21T13:05:51;34.50;30.50
72940;DHT22;61094;51.154;13.570;2023-08-21T13:10:53;34.60;29.80
72940;DHT22;61094;51.154;13.570;2023-08-21T13:15:56;34.60;30.00
72940;DHT22;61094;51.154;13.570;2023-08-21T13:20:59;34.70;30.10
72940;DHT22;61094;51.154;13.570;2023-08-21T13:26:01;34.80;30.00
72940;DHT22;61094;51.154;13.570;2023-08-21T13:31:04;34.90;29.00
72940;DHT22;61094;51.154;13.570;2023-08-21T13:36:07;35.00;29.50
72940;DHT22;61094;51.154;13.570;2023-08-21T13:41:09;35.10;29.80
72940;DHT22;61094;51.154;13.570;2023-08-21T13:46:12;34.90;29.60
72940;DHT22;61094;51.154;13.570;2023-08-21T13:51:15;34.90;29.50
72940;DHT22;61094;51.154;13.570;2023-08-21T13:56:17;34.80;29.30
72940;DHT22;61094;51.154;13.570;2023-08-21T14:01:20;34.70;29.50
72940;DHT22;61094;51.154;13.570;2023-08-21T14:06:22;34.60;29.20
72940;DHT22;61094;51.154;13.570;2023-08-21T14:11:25;34.00;30.10
72940;DHT22;61094;51.154;13.570;2023-08-21T14:16:28;33.10;31.10
72940;DHT22;61094;51.154;13.570;2023-08-21T14:21:30;32.80;31.50
72940;DHT22;61094;51.154;13.570;2023-08-21T14:26:32;32.50;31.70
72940;DHT22;61094;51.154;13.570;2023-08-21T14:31:35;32.00;32.20
72940;DHT22;61094;51.154;13.570;2023-08-21T14:36:37;32.10;32.50
72940;DHT22;61094;51.154;13.570;2023-08-21T14:41:41;31.80;32.40
72940;DHT22;61094;51.154;13.570;2023-08-21T14:46:44;30.90;34.30
72940;DHT22;61094;51.154;13.570;2023-08-21T14:51:46;30.10;35.80
72940;DHT22;61094;51.154;13.570;2023-08-21T14:56:47;29.70;36.70
72940;DHT22;61094;51.154;13.570;2023-08-21T15:01:51;29.80;37.00
72940;DHT22;61094;51.154;13.570;2023-08-21T15:06:52;29.70;37.30
72940;DHT22;61094;51.154;13.570;2023-08-21T15:11:54;30.20;36.70
72940;DHT22;61094;51.154;13.570;2023-08-21T15:16:57;29.90;36.30
72940;DHT22;61094;51.154;13.570;2023-08-21T15:21:59;30.10;36.50
72940;DHT22;61094;51.154;13.570;2023-08-21T15:27:01;30.80;35.70
72940;DHT22;61094;51.154;13.570;2023-08-21T15:32:05;30.60;34.80
72940;DHT22;61094;51.154;13.570;2023-08-21T15:37:07;30.90;34.60
72940;DHT22;61094;51.154;13.570;2023-08-21T15:42:09;31.30;34.30
72940;DHT22;61094;51.154;13.570;2023-08-21T15:47:13;31.20;34.00
72940;DHT22;61094;51.154;13.570;2023-08-21T15:52:16;30.60;34.70
72940;DHT22;61094;51.154;13.570;2023-08-21T15:57:18;30.30;35.50
72940;DHT22;61094;51.154;13.570;2023-08-21T16:02:21;30.60;35.00
72940;DHT22;61094;51.154;13.570;2023-08-21T16:07:23;30.80;34.60
72940;DHT22;61094;51.154;13.570;2023-08-21T16:12:25;30.90;34.50
72940;DHT22;61094;51.154;13.570;2023-08-21T16:17:29;30.10;34.30
72940;DHT22;61094;51.154;13.570;2023-08-21T16:22:31;29.50;35.60
72940;DHT22;61094;51.154;13.570;2023-08-21T16:27:33;29.40;36.30
72940;DHT22;61094;51.154;13.570;2023-08-21T16:32:37;29.20;37.00
72940;DHT22;61094;51.154;13.570;2023-08-21T16:37:39;29.00;36.60
72940;DHT22;61094;51.154;13.570;2023-08-21T16:42:41;28.70;37.00
72940;DHT22;61094;51.154;13.570;2023-08-21T16:47:44;28.40;37.50
72940;DHT22;61094;51.154;13.570;2023-08-21T16:52:46;28.10;37.60
72940;DHT22;61094;51.154;13.570;2023-08-21T16:57:49;28.20;37.70
72940;DHT22;61094;51.154;13.570;2023-08-21T17:02:52;28.30;37.40
72940;DHT22;61094;51.154;13.570;2023-08-21T17:07:54;28.20;37.00
72940;DHT22;61094;51.154;13.570;2023-08-21T17:12:55;28.10;37.20
72940;DHT22;61094;51.154;13.570;2023-08-21T17:17:58;28.00;37.30
72940;DHT22;61094;51.154;13.570;2023-08-21T17:23:02;27.90;37.50
72940;DHT22;61094;51.154;13.570;2023-08-21T17:28:04;28.00;38.00
72940;DHT22;61094;51.154;13.570;2023-08-21T17:33:07;27.90;38.50
72940;DHT22;61094;51.154;13.570;2023-08-21T17:38:10;27.80;39.00
72940;DHT22;61094;51.154;13.570;2023-08-21T17:43:13;27.60;39.30
72940;DHT22;61094;51.154;13.570;2023-08-21T17:48:16;27.50;39.60
72940;DHT22;61094;51.154;13.570;2023-08-21T17:53:17;27.40;40.40
72940;DHT22;61094;51.154;13.570;2023-08-21T17:58:19;27.30;40.90
72940;DHT22;61094;51.154;13.570;2023-08-21T18:03:22;27.30;41.20
72940;DHT22;61094;51.154;13.570;2023-08-21T18:08:24;27.40;41.10
72940;DHT22;61094;51.154;13.570;2023-08-21T18:13:26;27.30;41.90
72940;DHT22;61094;51.154;13.570;2023-08-21T18:18:29;27.10;42.10
72940;DHT22;61094;51.154;13.570;2023-08-21T18:23:33;27.00;42.90
72940;DHT22;61094;51.154;13.570;2023-08-21T18:28:34;27.00;43.80
72940;DHT22;61094;51.154;13.570;2023-08-21T18:33:38;26.80;44.20
72940;DHT22;61094;51.154;13.570;2023-08-21T18:38:40;26.70;44.70
72940;DHT22;61094;51.154;13.570;2023-08-21T18:43:42;26.50;45.40
72940;DHT22;61094;51.154;13.570;2023-08-21T18:48:45;26.40;45.80
72940;DHT22;61094;51.154;13.570;2023-08-21T18:53:47;26.30;47.00
72940;DHT22;61094;51.154;13.570;2023-08-21T18:58:49;26.30;48.10
72940;DHT22;61094;51.154;13.570;2023-08-21T19:03:52;26.20;48.80
72940;DHT22;61094;51.154;13.570;2023-08-21T19:08:54;26.10;50.10
72940;DHT22;61094;51.154;13.570;2023-08-21T19:13:57;26.00;50.70
72940;DHT22;61094;51.154;13.570;2023-08-21T19:19:10;25.90;51.60
72940;DHT22;61094;51.154;13.570;2023-08-21T19:24:12;25.80;51.20
72940;DHT22;61094;51.154;13.570;2023-08-21T19:29:14;25.70;53.40
72940;DHT22;61094;51.154;13.570;2023-08-21T19:34:17;25.40;55.30
72940;DHT22;61094;51.154;13.570;2023-08-21T19:39:22;25.30;58.50
72940;DHT22;61094;51.154;13.570;2023-08-21T19:44:24;25.10;58.30
72940;DHT22;61094;51.154;13.570;2023-08-21T19:49:27;25.10;59.60
72940;DHT22;61094;51.154;13.570;2023-08-21T19:54:29;25.00;62.80
72940;DHT22;61094;51.154;13.570;2023-08-21T19:59:31;25.00;65.30
72940;DHT22;61094;51.154;13.570;2023-08-21T20:04:34;25.00;64.00
72940;DHT22;61094;51.154;13.570;2023-08-21T20:09:36;25.00;67.40
72940;DHT22;61094;51.154;13.570;2023-08-21T20:14:42;24.90;70.40
72940;DHT22;61094;51.154;13.570;2023-08-21T20:19:46;24.70;72.70
72940;DHT22;61094;51.154;13.570;2023-08-21T20:24:47;24.40;75.20
72940;DHT22;61094;51.154;13.570;2023-08-21T20:29:50;24.40;75.20
72940;DHT22;61094;51.154;13.570;2023-08-21T20:34:54;24.40;78.00
72940;DHT22;61094;51.154;13.570;2023-08-21T20:39:56;24.20;80.80
72940;DHT22;61094;51.154;13.570;2023-08-21T20:44:58;24.10;78.90
72940;DHT22;61094;51.154;13.570;2023-08-21T20:50:04;24.00;83.90
72940;DHT22;61094;51.154;13.570;2023-08-21T20:55:06;23.80;83.50
72940;DHT22;61094;51.154;13.570;2023-08-21T21:00:09;23.70;84.30
72940;DHT22;61094;51.154;13.570;2023-08-21T21:05:13;23.60;85.40
72940;DHT22;61094;51.154;13.570;2023-08-21T21:10:20;23.60;85.50
72940;DHT22;61094;51.154;13.570;2023-08-21T21:15:25;23.40;90.60
72940;DHT22;61094;51.154;13.570;2023-08-21T21:20:28;23.30;91.00
72940;DHT22;61094;51.154;13.570;2023-08-21T21:25:30;23.20;87.70
72940;DHT22;61094;51.154;13.570;2023-08-21T21:30:32;23.20;91.90
72940;DHT22;61094;51.154;13.570;2023-08-21T21:35:35;23.10;91.10
72940;DHT22;61094;51.154;13.570;2023-08-21T21:40:40;23.10;90.10
72940;DHT22;61094;51.154;13.570;2023-08-21T21:45:42;23.00;90.30
72940;DHT22;61094;51.154;13.570;2023-08-21T21:50:45;22.90;92.20
72940;DHT22;61094;51.154;13.570;2023-08-21T21:55:47;22.80;92.90
72940;DHT22;61094;51.154;13.570;2023-08-21T22:00:49;22.70;92.20
72940;DHT22;61094;51.154;13.570;2023-08-21T22:05:52;22.70;93.10
72940;DHT22;61094;51.154;13.570;2023-08-21T22:10:54;22.50;93.10
72940;DHT22;61094;51.154;13.570;2023-08-21T22:15:56;22.30;95.10
72940;DHT22;61094;51.154;13.570;2023-08-21T22:20:59;22.20;94.90
72940;DHT22;61094;51.154;13.570;2023-08-21T22:26:01;22.10;95.60
72940;DHT22;61094;51.154;13.570;2023-08-21T22:31:03;22.10;95.10
72940;DHT22;61094;51.154;13.570;2023-08-21T22:36:08;22.10;95.30
72940;DHT22;61094;51.154;13.570;2023-08-21T22:41:09;22.10;96.50
72940;DHT22;61094;51.154;13.570;2023-08-21T22:46:12;22.10;96.30
72940;DHT22;61094;51.154;13.570;2023-08-21T22:51:15;22.10;95.80
72940;DHT22;61094;51.154;13.570;2023-08-21T22:56:17;22.10;96.70
72940;DHT22;61094;51.154;13.570;2023-08-21T23:01:19;22.10;97.30
72940;DHT22;61094;51.154;13.570;2023-08-21T23:06:22;22.00;97.00
72940;DHT22;61094;51.154;13.570;2023-08-21T23:11:24;21.90;96.20
72940;DHT22;61094;51.154;13.570;2023-08-21T23:16:25;21.70;99.30
72940;DHT22;61094;51.154;13.570;2023-08-21T23:21:29;21.40;99.90
72940;DHT22;61094;51.154;13.570;2023-08-21T23:26:32;21.40;99.90
72940;DHT22;61094;51.154;13.570;2023-08-21T23:31:34;21.30;99.90
72940;DHT22;61094;51.154;13.570;2023-08-21T23:36:37;21.30;99.90
72940;DHT22;61094;51.154;13.570;2023-08-21T23:41:39;21.30;99.80
72940;DHT22;61094;51.154;13.570;2023-08-21T23:46:42;21.30;99.90
72940;DHT22;61094;51.154;13.570;2023-08-21T23:51:45;21.30;99.90
72940;DHT22;61094;51.154;13.570;2023-08-21T23:56:47;21.30;99.90
